Time;durP1;ratioP1;P1;durP2;ratioP2;P2;SDS_P1;SDS_P2;PMS_P1;PMS_P2;Temp;Humidity;BMP_temperature;BMP_pressure;BME280_temperature;BME280_humidity;BME280_pressure;Samples;Min_cycle;Max_cycle;Signal;HPM_P1;HPM_P2
2024/01/25 00:01:04;;;;;;;15.80;4.00;;;;;;;;;;137495;1273;22231;-81
2024/01/25 00:04:16;;;;;;;13.60;4.10;;;;;;;;;;137571;1273;22188;-83
2024/01/25 00:07:19;;;;;;;21.10;4.50;;;;;;;;;;137474;1273;22538;-80
2024/01/25 00:10:22;;;;;;;12.00;4.10;;;;;;;;;;137599;1273;22327;-80
2024/01/25 00:13:24;;;;;;;14.50;3.50;;;;;;;;;;137347;1273;22244;-82
2024/01/25 00:16:27;;;;;;;19.00;3.80;;;;;;;;;;137558;1273;22199;-80
2024/01/25 00:19:29;;;;;;;16.10;4.30;;;;;;;;;;137437;1273;22402;-80
2024/01/25 00:22:31;;;;;;;24.20;4.30;;;;;;;;;;137525;1273;22665;-80
2024/01/25 00:25:37;;;;;;;20.20;4.30;;;;;;;;;;137414;1274;22223;-81
2024/01/25 00:28:39;;;;;;;13.50;4.00;;;;;;;;;;137435;1274;22791;-80
2024/01/25 00:31:43;;;;;;;21.00;5.10;;;;;;;;;;137625;1273;22312;-79
2024/01/25 00:34:45;;;;;;;25.20;5.10;;;;;;;;;;137577;1273;22160;-80
2024/01/25 00:37:48;;;;;;;12.40;3.90;;;;;;;;;;137604;1273;22237;-80
2024/01/25 00:40:50;;;;;;;12.60;3.80;;;;;;;;;;137560;1272;22376;-80
2024/01/25 00:43:52;;;;;;;12.60;3.80;;;;;;;;;;137584;1273;22425;-79
2024/01/25 00:46:55;;;;;;;10.90;3.50;;;;;;;;;;137600;1273;22264;-79
2024/01/25 00:49:57;;;;;;;11.70;3.40;;;;;;;;;;137540;1271;22225;-79
2024/01/25 00:53:00;;;;;;;12.40;4.10;;;;;;;;;;137564;1273;22278;-79
2024/01/25 00:56:02;;;;;;;16.80;3.20;;;;;;;;;;137545;1273;22254;-79
2024/01/25 00:59:05;;;;;;;14.10;3.20;;;;;;;;;;137577;1273;22219;-79
2024/01/25 01:02:07;;;;;;;19.00;3.80;;;;;;;;;;137565;1273;22392;-79
2024/01/25 01:05:09;;;;;;;12.70;3.80;;;;;;;;;;137620;1273;22201;-80
2024/01/25 01:08:12;;;;;;;14.60;4.30;;;;;;;;;;137626;1263;22331;-80
2024/01/25 01:11:16;;;;;;;11.40;2.90;;;;;;;;;;137549;1273;22196;-80
2024/01/25 01:14:19;;;;;;;9.40;3.00;;;;;;;;;;137629;1273;22245;-79
2024/01/25 01:17:21;;;;;;;10.90;3.40;;;;;;;;;;137612;1273;22306;-79
2024/01/25 01:20:24;;;;;;;11.60;3.10;;;;;;;;;;137566;1273;22352;-80
2024/01/25 01:23:26;;;;;;;17.60;3.30;;;;;;;;;;137568;1272;22581;-80
2024/01/25 01:26:29;;;;;;;15.60;3.60;;;;;;;;;;137552;1273;22336;-80
2024/01/25 01:29:31;;;;;;;16.10;4.10;;;;;;;;;;137505;1273;22328;-80
2024/01/25 01:32:34;;;;;;;13.90;4.70;;;;;;;;;;137567;1273;22300;-79
2024/01/25 01:35:36;;;;;;;18.30;4.50;;;;;;;;;;137442;1273;23266;-80
2024/01/25 01:38:38;;;;;;;14.80;4.20;;;;;;;;;;137589;1273;22165;-80
2024/01/25 01:41:41;;;;;;;16.60;4.10;;;;;;;;;;137403;1273;22197;-80
2024/01/25 01:44:43;;;;;;;13.20;3.70;;;;;;;;;;137473;1273;22149;-80
2024/01/25 01:47:46;;;;;;;14.40;4.80;;;;;;;;;;137517;1257;22197;-80
2024/01/25 01:50:48;;;;;;;18.60;3.80;;;;;;;;;;137519;1273;22773;-80
2024/01/25 01:53:51;;;;;;;10.90;3.50;;;;;;;;;;137500;1273;22237;-80
2024/01/25 01:56:53;;;;;;;17.70;4.00;;;;;;;;;;137541;1269;22685;-80
2024/01/25 01:59:55;;;;;;;10.80;3.40;;;;;;;;;;137467;1273;22678;-79
2024/01/25 02:03:00;;;;;;;13.80;3.80;;;;;;;;;;137491;1273;22175;-81
2024/01/25 02:06:03;;;;;;;20.20;4.10;;;;;;;;;;137382;1273;22653;-80
2024/01/25 02:09:09;;;;;;;11.40;3.20;;;;;;;;;;137382;1273;22347;-80
2024/01/25 02:12:12;;;;;;;11.70;3.30;;;;;;;;;;137438;1273;22594;-78
2024/01/25 02:15:14;;;;;;;11.10;4.00;;;;;;;;;;137515;1273;22290;-80
2024/01/25 02:18:17;;;;;;;13.20;3.50;;;;;;;;;;137544;1273;22546;-81
2024/01/25 02:21:20;;;;;;;13.70;3.60;;;;;;;;;;137479;1273;22243;-80
2024/01/25 02:24:22;;;;;;;14.00;3.80;;;;;;;;;;137449;1273;22196;-81
2024/01/25 02:27:25;;;;;;;15.60;3.60;;;;;;;;;;137557;1273;22161;-80
2024/01/25 02:30:27;;;;;;;10.50;3.90;;;;;;;;;;137582;1273;22255;-81
2024/01/25 02:33:30;;;;;;;12.80;3.30;;;;;;;;;;137635;1273;22705;-80
2024/01/25 02:36:32;;;;;;;13.70;3.20;;;;;;;;;;137537;1273;22293;-80
2024/01/25 02:39:35;;;;;;;10.70;3.00;;;;;;;;;;137532;1273;22273;-81
2024/01/25 02:42:37;;;;;;;9.70;2.70;;;;;;;;;;137583;1273;22770;-80
2024/01/25 02:45:39;;;;;;;8.90;2.10;;;;;;;;;;137549;1273;23734;-80
2024/01/25 02:48:42;;;;;;;12.00;2.80;;;;;;;;;;137577;1273;22183;-80
2024/01/25 02:51:44;;;;;;;12.50;2.90;;;;;;;;;;137595;1273;22122;-80
2024/01/25 02:54:47;;;;;;;7.80;2.00;;;;;;;;;;137567;1273;22175;-80
2024/01/25 02:57:49;;;;;;;7.00;3.10;;;;;;;;;;137584;1273;22224;-80
2024/01/25 03:00:52;;;;;;;7.50;2.80;;;;;;;;;;137577;1268;22233;-80
2024/01/25 03:03:54;;;;;;;8.10;2.90;;;;;;;;;;137608;1273;22137;-80
2024/01/25 03:06:57;;;;;;;11.50;2.30;;;;;;;;;;137599;1273;22065;-80
2024/01/25 03:09:59;;;;;;;9.90;2.60;;;;;;;;;;137553;1273;22735;-80
2024/01/25 03:13:02;;;;;;;10.70;2.60;;;;;;;;;;137579;1273;22077;-79
2024/01/25 03:16:04;;;;;;;9.10;2.60;;;;;;;;;;137574;1273;22942;-80
2024/01/25 03:19:07;;;;;;;10.00;2.80;;;;;;;;;;137571;1273;22082;-81
2024/01/25 03:22:09;;;;;;;11.90;2.60;;;;;;;;;;137584;1273;22430;-80
2024/01/25 03:25:12;;;;;;;10.70;2.90;;;;;;;;;;137552;1273;22124;-80
2024/01/25 03:28:16;;;;;;;12.30;2.60;;;;;;;;;;137585;1273;22151;-79
2024/01/25 03:31:18;;;;;;;17.30;3.80;;;;;;;;;;137605;1273;22265;-79
2024/01/25 03:34:21;;;;;;;14.20;3.60;;;;;;;;;;137570;1273;22399;-79
2024/01/25 03:37:23;;;;;;;11.10;3.40;;;;;;;;;;137584;1273;22269;-80
2024/01/25 03:40:26;;;;;;;12.20;3.70;;;;;;;;;;137576;1273;22159;-79
2024/01/25 03:43:28;;;;;;;18.00;3.60;;;;;;;;;;137552;1273;22109;-79
2024/01/25 03:46:30;;;;;;;12.00;3.50;;;;;;;;;;137521;1273;22112;-80
2024/01/25 03:49:33;;;;;;;10.10;4.10;;;;;;;;;;137504;1273;22128;-79
2024/01/25 03:52:35;;;;;;;16.50;3.40;;;;;;;;;;137507;1273;22304;-79
2024/01/25 03:55:40;;;;;;;12.30;3.50;;;;;;;;;;137511;1273;22103;-79
2024/01/25 03:58:42;;;;;;;27.80;4.80;;;;;;;;;;137544;1273;22120;-78
2024/01/25 04:01:44;;;;;;;17.40;4.90;;;;;;;;;;137538;1273;22185;-79
2024/01/25 04:04:47;;;;;;;14.40;4.00;;;;;;;;;;137522;1273;22789;-78
2024/01/25 04:07:49;;;;;;;14.10;3.80;;;;;;;;;;137544;1273;22258;-80
2024/01/25 04:10:52;;;;;;;21.20;4.70;;;;;;;;;;137532;1273;22132;-78
2024/01/25 04:13:54;;;;;;;16.20;4.00;;;;;;;;;;137540;1273;22581;-78
2024/01/25 04:16:57;;;;;;;20.40;4.40;;;;;;;;;;137573;1273;22069;-78
2024/01/25 04:19:59;;;;;;;18.40;4.30;;;;;;;;;;137561;1273;22242;-77
2024/01/25 04:23:01;;;;;;;17.30;4.00;;;;;;;;;;137534;1273;22167;-78
2024/01/25 04:26:04;;;;;;;20.40;3.90;;;;;;;;;;137511;1273;22656;-78
2024/01/25 04:29:07;;;;;;;13.60;4.10;;;;;;;;;;137547;1273;22736;-79
2024/01/25 04:32:09;;;;;;;23.70;4.60;;;;;;;;;;137557;1273;22210;-80
2024/01/25 04:35:11;;;;;;;19.80;4.40;;;;;;;;;;137520;1273;22142;-80
2024/01/25 04:38:15;;;;;;;23.90;5.00;;;;;;;;;;137496;1273;22584;-79
2024/01/25 04:41:17;;;;;;;14.90;3.90;;;;;;;;;;137525;1273;22121;-79
2024/01/25 04:44:20;;;;;;;18.90;5.20;;;;;;;;;;137518;1267;22715;-80
2024/01/25 04:47:22;;;;;;;21.70;4.70;;;;;;;;;;137501;1273;22509;-80
2024/01/25 04:50:25;;;;;;;20.80;4.40;;;;;;;;;;137538;1273;22158;-79
2024/01/25 04:53:27;;;;;;;18.00;4.70;;;;;;;;;;137514;1273;22177;-80
2024/01/25 04:56:30;;;;;;;18.60;4.10;;;;;;;;;;137523;1273;22603;-79
2024/01/25 04:59:32;;;;;;;17.90;4.40;;;;;;;;;;137493;1267;22103;-78
2024/01/25 05:02:35;;;;;;;16.00;4.60;;;;;;;;;;137524;1273;22169;-79
2024/01/25 05:05:37;;;;;;;20.00;4.20;;;;;;;;;;137554;1273;22415;-79
2024/01/25 05:08:40;;;;;;;18.20;3.80;;;;;;;;;;137518;1272;22136;-78
2024/01/25 05:11:42;;;;;;;21.50;5.30;;;;;;;;;;137454;1273;22103;-77
2024/01/25 05:14:45;;;;;;;21.40;4.20;;;;;;;;;;137512;1273;22121;-81
2024/01/25 05:17:47;;;;;;;20.90;5.00;;;;;;;;;;137659;1273;22194;-79
2024/01/25 05:20:50;;;;;;;23.90;5.30;;;;;;;;;;137659;1273;22196;-80
2024/01/25 05:23:52;;;;;;;18.00;4.50;;;;;;;;;;137567;1273;22122;-79
2024/01/25 05:26:56;;;;;;;17.70;4.80;;;;;;;;;;137570;1273;22174;-79
2024/01/25 05:29:58;;;;;;;19.50;4.60;;;;;;;;;;137555;1273;22079;-78
2024/01/25 05:33:01;;;;;;;21.50;4.80;;;;;;;;;;137499;1273;22165;-79
2024/01/25 05:36:03;;;;;;;27.50;5.00;;;;;;;;;;137448;1273;22604;-78
2024/01/25 05:39:07;;;;;;;21.20;4.60;;;;;;;;;;137512;1273;22273;-79
2024/01/25 05:42:10;;;;;;;18.00;4.50;;;;;;;;;;137551;1273;22225;-77
2024/01/25 05:45:12;;;;;;;24.10;6.20;;;;;;;;;;137476;1273;22584;-79
2024/01/25 05:48:15;;;;;;;16.90;4.90;;;;;;;;;;137522;1273;22166;-78
2024/01/25 05:51:17;;;;;;;23.30;4.90;;;;;;;;;;137525;1273;22195;-80
2024/01/25 05:54:20;;;;;;;20.60;4.70;;;;;;;;;;137557;1273;22324;-79
2024/01/25 05:57:22;;;;;;;22.60;4.40;;;;;;;;;;137489;1273;22116;-80
2024/01/25 06:00:25;;;;;;;23.20;4.30;;;;;;;;;;137515;1273;23271;-80
2024/01/25 06:03:27;;;;;;;18.70;5.70;;;;;;;;;;137487;1273;22134;-82
2024/01/25 06:06:30;;;;;;;17.90;4.90;;;;;;;;;;137529;1270;22116;-81
2024/01/25 06:09:32;;;;;;;18.60;5.10;;;;;;;;;;137558;1273;22146;-80
2024/01/25 06:12:35;;;;;;;21.20;4.80;;;;;;;;;;137540;1273;22877;-81
2024/01/25 06:15:38;;;;;;;13.50;3.80;;;;;;;;;;137542;1273;22310;-81
2024/01/25 06:18:41;;;;;;;22.80;4.50;;;;;;;;;;137529;1273;22633;-80
2024/01/25 06:21:43;;;;;;;22.00;5.70;;;;;;;;;;137472;1273;22133;-80
2024/01/25 06:24:46;;;;;;;20.10;5.00;;;;;;;;;;137484;1273;22305;-78
2024/01/25 06:27:48;;;;;;;22.40;5.10;;;;;;;;;;137476;1273;22193;-80
2024/01/25 06:30:51;;;;;;;22.70;5.20;;;;;;;;;;137459;1273;22619;-81
2024/01/25 06:33:54;;;;;;;27.10;6.00;;;;;;;;;;137476;1273;22148;-81
2024/01/25 06:36:56;;;;;;;19.60;4.80;;;;;;;;;;137496;1273;22123;-81
2024/01/25 06:39:59;;;;;;;19.80;6.50;;;;;;;;;;137501;1273;22120;-81
2024/01/25 06:43:01;;;;;;;22.70;6.60;;;;;;;;;;137518;1273;22210;-82
2024/01/25 06:46:04;;;;;;;16.80;5.20;;;;;;;;;;137509;1273;22157;-82
2024/01/25 06:49:07;;;;;;;26.90;5.70;;;;;;;;;;137499;1273;22105;-82
2024/01/25 06:52:10;;;;;;;17.30;4.10;;;;;;;;;;137546;1273;22511;-82
2024/01/25 06:55:13;;;;;;;21.50;5.20;;;;;;;;;;137505;1273;22115;-81
2024/01/25 06:58:16;;;;;;;20.60;4.80;;;;;;;;;;137545;1273;22121;-83
2024/01/25 07:01:19;;;;;;;16.50;3.90;;;;;;;;;;137472;1273;22180;-82
2024/01/25 07:04:21;;;;;;;23.20;6.00;;;;;;;;;;137551;1273;22274;-82
2024/01/25 07:07:24;;;;;;;20.00;4.90;;;;;;;;;;137559;1267;22147;-82
2024/01/25 07:10:26;;;;;;;18.40;5.20;;;;;;;;;;137532;1273;22127;-83
2024/01/25 07:13:32;;;;;;;16.90;4.50;;;;;;;;;;137536;1273;22125;-82
2024/01/25 07:16:39;;;;;;;18.60;5.90;;;;;;;;;;137577;1273;22693;-82
2024/01/25 07:19:43;;;;;;;16.60;4.30;;;;;;;;;;137534;1273;22138;-82
2024/01/25 07:22:45;;;;;;;12.80;4.50;;;;;;;;;;137581;1273;22152;-81
2024/01/25 07:25:48;;;;;;;18.70;5.40;;;;;;;;;;137661;1264;22239;-83
2024/01/25 07:28:53;;;;;;;22.80;5.70;;;;;;;;;;137612;1270;22128;-83
2024/01/25 07:31:56;;;;;;;20.70;4.80;;;;;;;;;;137613;1273;22131;-81
2024/01/25 07:34:58;;;;;;;17.20;5.40;;;;;;;;;;137639;1273;22566;-82
2024/01/25 07:38:01;;;;;;;15.00;5.50;;;;;;;;;;137423;1273;215023;-81
2024/01/25 07:41:03;;;;;;;19.50;4.60;;;;;;;;;;137587;1273;22229;-81
2024/01/25 07:44:06;;;;;;;19.40;5.10;;;;;;;;;;137633;1273;22612;-82
2024/01/25 07:47:08;;;;;;;21.30;5.00;;;;;;;;;;137599;1262;22225;-82
2024/01/25 07:50:11;;;;;;;18.80;4.40;;;;;;;;;;137614;1273;22192;-82
2024/01/25 07:53:16;;;;;;;25.60;6.30;;;;;;;;;;137619;1273;22252;-83
2024/01/25 07:56:18;;;;;;;23.80;5.70;;;;;;;;;;137638;1273;22189;-83
2024/01/25 07:59:21;;;;;;;20.90;7.70;;;;;;;;;;137629;1273;22196;-82
2024/01/25 08:02:23;;;;;;;28.70;8.20;;;;;;;;;;137680;1273;22584;-81
2024/01/25 08:05:26;;;;;;;21.80;8.20;;;;;;;;;;137727;1273;22276;-82
2024/01/25 08:08:32;;;;;;;20.90;5.90;;;;;;;;;;137645;1273;22136;-81
2024/01/25 08:11:35;;;;;;;24.60;6.50;;;;;;;;;;137648;1269;22247;-82
2024/01/25 08:14:37;;;;;;;20.20;5.50;;;;;;;;;;137677;1269;22103;-82
2024/01/25 08:17:40;;;;;;;23.40;5.90;;;;;;;;;;137600;1273;22128;-81
2024/01/25 08:20:42;;;;;;;22.20;7.20;;;;;;;;;;137613;1273;22444;-81
2024/01/25 08:23:47;;;;;;;24.80;7.50;;;;;;;;;;137492;1273;22139;-82
2024/01/25 08:26:50;;;;;;;20.40;6.70;;;;;;;;;;137420;1274;22118;-82
2024/01/25 08:29:53;;;;;;;19.30;5.00;;;;;;;;;;137426;1273;22293;-82
2024/01/25 08:33:07;;;;;;;22.90;5.80;;;;;;;;;;137525;1267;22228;-80
2024/01/25 08:36:10;;;;;;;19.60;5.90;;;;;;;;;;137598;1272;22170;-81
2024/01/25 08:39:15;;;;;;;21.90;5.40;;;;;;;;;;137613;1272;22128;-82
2024/01/25 08:42:18;;;;;;;19.00;5.70;;;;;;;;;;137481;1272;22226;-84
2024/01/25 08:45:21;;;;;;;25.70;7.00;;;;;;;;;;137558;1272;22115;-82
2024/01/25 08:48:28;;;;;;;23.10;8.00;;;;;;;;;;137431;1274;22160;-82
2024/01/25 08:51:31;;;;;;;28.40;8.40;;;;;;;;;;137435;1274;22702;-80
2024/01/25 08:54:35;;;;;;;33.30;8.10;;;;;;;;;;137416;1274;22133;-83
2024/01/25 08:57:39;;;;;;;20.30;5.70;;;;;;;;;;137405;1270;22515;-81
2024/01/25 09:00:42;;;;;;;25.50;6.40;;;;;;;;;;137403;1274;22139;-81
2024/01/25 09:03:45;;;;;;;21.80;6.30;;;;;;;;;;137374;1274;22691;-82
2024/01/25 09:06:47;;;;;;;26.70;6.40;;;;;;;;;;137641;1273;22158;-82
2024/01/25 09:09:50;;;;;;;19.80;6.40;;;;;;;;;;137564;1273;22132;-82
2024/01/25 09:12:53;;;;;;;23.90;7.40;;;;;;;;;;137628;1273;22247;-82
2024/01/25 09:15:55;;;;;;;20.00;5.80;;;;;;;;;;137564;1273;22608;-82
2024/01/25 09:18:58;;;;;;;31.00;8.10;;;;;;;;;;137608;1273;22178;-81
2024/01/25 09:22:04;;;;;;;25.40;6.90;;;;;;;;;;137629;1272;22376;-82
2024/01/25 09:25:07;;;;;;;22.70;7.70;;;;;;;;;;137561;1273;22132;-82
2024/01/25 09:28:11;;;;;;;24.80;6.40;;;;;;;;;;137489;1273;22201;-83
2024/01/25 09:31:14;;;;;;;35.00;8.00;;;;;;;;;;137540;1273;23162;-82
2024/01/25 09:34:16;;;;;;;26.90;7.80;;;;;;;;;;137528;1259;22307;-80
2024/01/25 09:37:20;;;;;;;29.60;7.10;;;;;;;;;;137569;1273;22281;-82
2024/01/25 09:40:23;;;;;;;25.10;7.10;;;;;;;;;;137490;1273;22199;-84
2024/01/25 09:43:25;;;;;;;28.80;6.70;;;;;;;;;;137616;1273;22134;-83
2024/01/25 09:46:33;;;;;;;35.10;7.30;;;;;;;;;;137536;1273;22295;-82
2024/01/25 09:49:40;;;;;;;24.60;7.40;;;;;;;;;;137566;1273;22177;-82
2024/01/25 09:52:43;;;;;;;25.50;7.30;;;;;;;;;;137514;1272;22956;-83
2024/01/25 09:55:47;;;;;;;23.10;7.60;;;;;;;;;;137512;1267;22121;-82
2024/01/25 09:58:51;;;;;;;30.70;8.90;;;;;;;;;;137508;1273;22111;-82
2024/01/25 10:01:54;;;;;;;26.20;7.80;;;;;;;;;;137526;1273;22270;-82
2024/01/25 10:04:56;;;;;;;23.70;6.50;;;;;;;;;;137488;1273;22588;-83
2024/01/25 10:08:01;;;;;;;24.90;8.80;;;;;;;;;;137484;1273;22168;-82
2024/01/25 10:11:03;;;;;;;31.10;8.80;;;;;;;;;;137517;1273;22238;-81
2024/01/25 10:14:07;;;;;;;25.90;9.30;;;;;;;;;;137564;1273;22201;-82
2024/01/25 10:17:10;;;;;;;23.20;6.70;;;;;;;;;;137577;1273;22153;-82
2024/01/25 10:20:12;;;;;;;24.60;6.50;;;;;;;;;;137575;1273;22136;-83
2024/01/25 10:23:16;;;;;;;24.80;7.60;;;;;;;;;;137542;1273;22169;-82
2024/01/25 10:26:18;;;;;;;20.70;5.60;;;;;;;;;;137655;1273;22947;-82
2024/01/25 10:29:21;;;;;;;19.80;5.20;;;;;;;;;;137615;1269;22146;-82
2024/01/25 10:32:25;;;;;;;22.60;5.50;;;;;;;;;;137631;1257;22114;-83
2024/01/25 10:35:27;;;;;;;29.10;6.80;;;;;;;;;;137548;1273;22303;-83
2024/01/25 10:38:30;;;;;;;23.20;7.40;;;;;;;;;;137577;1273;22345;-85
2024/01/25 10:41:32;;;;;;;21.40;6.60;;;;;;;;;;137615;1273;22632;-84
2024/01/25 10:44:37;;;;;;;21.10;6.40;;;;;;;;;;137549;1270;22158;-83
2024/01/25 10:47:40;;;;;;;20.40;6.30;;;;;;;;;;137312;1273;22212;-82
2024/01/25 10:50:45;;;;;;;19.80;4.90;;;;;;;;;;136769;1282;22178;-82
2024/01/25 10:57:19;;;;;;;20.50;5.50;;;;;;;;;;133115;1305;545236;-81
2024/01/25 11:00:22;;;;;;;24.70;5.60;;;;;;;;;;137245;1278;22590;-82
2024/01/25 11:03:23;;;;;;;18.60;5.70;;;;;;;;;;137110;1278;22222;-82
2024/01/25 11:06:25;;;;;;;20.30;4.80;;;;;;;;;;137196;1278;22238;-83
2024/01/25 11:09:29;;;;;;;26.10;7.90;;;;;;;;;;134779;1276;3211045;-83
2024/01/25 11:12:30;;;;;;;22.80;7.90;;;;;;;;;;137051;1276;22255;-83
2024/01/25 11:15:37;;;;;;;22.20;7.70;;;;;;;;;;137137;1276;22295;-84
2024/01/25 11:19:04;;;;;;;24.30;6.20;;;;;;;;;;137115;1278;22305;-84
2024/01/25 11:22:06;;;;;;;25.30;6.70;;;;;;;;;;137130;1278;22376;-83
2024/01/25 11:25:09;;;;;;;24.70;8.20;;;;;;;;;;137120;1278;22183;-84
2024/01/25 11:28:12;;;;;;;25.40;6.60;;;;;;;;;;137116;1270;22292;-83
2024/01/25 11:31:13;;;;;;;17.90;5.70;;;;;;;;;;137071;1278;22232;-83
2024/01/25 11:34:18;;;;;;;24.40;5.50;;;;;;;;;;136978;1278;22942;-82
2024/01/25 11:37:21;;;;;;;16.50;5.40;;;;;;;;;;137366;1275;22287;-81
2024/01/25 11:40:25;;;;;;;23.30;5.40;;;;;;;;;;137410;1275;23768;-81
2024/01/25 11:43:31;;;;;;;19.60;6.90;;;;;;;;;;137381;1275;22305;-81
2024/01/25 11:46:32;;;;;;;20.90;5.80;;;;;;;;;;137460;1275;22805;-81
2024/01/25 11:49:33;;;;;;;19.80;5.50;;;;;;;;;;137331;1275;23278;-82
2024/01/25 11:52:35;;;;;;;22.90;6.10;;;;;;;;;;137449;1275;22339;-80
2024/01/25 11:55:36;;;;;;;19.50;5.80;;;;;;;;;;137581;1272;23189;-80
2024/01/25 11:58:37;;;;;;;20.10;5.90;;;;;;;;;;137596;1272;22263;-81
2024/01/25 12:01:39;;;;;;;19.60;6.50;;;;;;;;;;137645;1267;22141;-81
2024/01/25 12:04:40;;;;;;;23.50;7.60;;;;;;;;;;137624;1272;22134;-81
2024/01/25 12:07:41;;;;;;;24.00;8.10;;;;;;;;;;137647;1272;22250;-80
2024/01/25 12:10:42;;;;;;;21.90;6.70;;;;;;;;;;137600;1273;22149;-81
2024/01/25 12:13:44;;;;;;;22.80;6.30;;;;;;;;;;137599;1273;22556;-79
2024/01/25 12:16:45;;;;;;;17.20;6.40;;;;;;;;;;137599;1273;22083;-81
2024/01/25 12:19:46;;;;;;;20.10;7.20;;;;;;;;;;137601;1273;22133;-82
2024/01/25 12:22:47;;;;;;;23.70;8.40;;;;;;;;;;137649;1273;22125;-81
2024/01/25 12:25:48;;;;;;;19.30;6.30;;;;;;;;;;137620;1273;22622;-82
2024/01/25 12:28:49;;;;;;;15.50;5.30;;;;;;;;;;137598;1273;22597;-81
2024/01/25 12:31:51;;;;;;;24.00;6.70;;;;;;;;;;137621;1273;22145;-83
2024/01/25 12:34:52;;;;;;;23.60;5.80;;;;;;;;;;137612;1273;22823;-82
2024/01/25 12:37:53;;;;;;;25.30;6.50;;;;;;;;;;137668;1273;22646;-81
2024/01/25 12:40:54;;;;;;;23.80;6.30;;;;;;;;;;137587;1273;22741;-83
2024/01/25 12:43:56;;;;;;;14.20;4.50;;;;;;;;;;137618;1273;22558;-82
2024/01/25 12:47:01;;;;;;;27.70;7.20;;;;;;;;;;137618;1273;22616;-82
2024/01/25 12:50:02;;;;;;;26.40;9.00;;;;;;;;;;137586;1273;22129;-85
2024/01/25 12:53:04;;;;;;;41.60;12.00;;;;;;;;;;137563;1273;22594;-83
2024/01/25 12:56:05;;;;;;;39.40;9.80;;;;;;;;;;137589;1273;22198;-82
2024/01/25 12:59:06;;;;;;;31.30;8.70;;;;;;;;;;137616;1263;22123;-81
2024/01/25 13:02:10;;;;;;;21.30;6.90;;;;;;;;;;137562;1273;22669;-81
2024/01/25 13:05:14;;;;;;;21.00;6.00;;;;;;;;;;137598;1273;22133;-83
2024/01/25 13:08:17;;;;;;;21.90;6.70;;;;;;;;;;137651;1273;22571;-82
2024/01/25 13:11:18;;;;;;;19.80;6.60;;;;;;;;;;137594;1273;22644;-84
2024/01/25 13:14:19;;;;;;;20.70;6.40;;;;;;;;;;137554;1273;22257;-79
2024/01/25 13:17:23;;;;;;;23.00;5.70;;;;;;;;;;137590;1273;22258;-80
2024/01/25 13:20:24;;;;;;;19.70;5.50;;;;;;;;;;137545;1273;22248;-80
2024/01/25 13:23:25;;;;;;;22.10;6.30;;;;;;;;;;137646;1273;22706;-79
2024/01/25 13:26:26;;;;;;;23.10;5.50;;;;;;;;;;137592;1266;22139;-80
2024/01/25 13:29:27;;;;;;;15.60;6.30;;;;;;;;;;137631;1273;22129;-80
2024/01/25 13:32:29;;;;;;;23.10;5.90;;;;;;;;;;137618;1273;22254;-81
2024/01/25 13:35:31;;;;;;;19.30;5.90;;;;;;;;;;137607;1273;22404;-80
2024/01/25 13:38:32;;;;;;;27.20;9.70;;;;;;;;;;137604;1273;22107;-80
2024/01/25 13:41:33;;;;;;;18.90;6.70;;;;;;;;;;137624;1273;22134;-81
2024/01/25 13:44:35;;;;;;;28.30;8.20;;;;;;;;;;137593;1273;22171;-80
2024/01/25 13:47:36;;;;;;;17.90;6.00;;;;;;;;;;137642;1273;22273;-80
2024/01/25 13:52:47;;;;;;;18.80;6.30;;;;;;;4.81;100.00;98671.30;133266;1297;544929;-80
2024/01/25 13:55:50;;;;;;;28.80;7.60;;;;;;;4.76;100.00;98676.31;135440;1285;22557;-80
2024/01/25 13:58:52;;;;;;;16.90;5.70;;;;;;;4.73;100.00;98677.10;134190;1284;22994;-80
2024/01/25 14:01:55;;;;;;;21.50;6.60;;;;;;;4.69;100.00;98677.48;134297;1285;23174;-80
2024/01/25 14:04:57;;;;;;;25.30;7.80;;;;;;;4.67;100.00;98682.40;134261;1282;200703;-79
2024/01/25 14:08:00;;;;;;;23.40;7.60;;;;;;;4.63;100.00;98686.05;134549;1282;22573;-80
2024/01/25 14:11:03;;;;;;;15.30;5.80;;;;;;;4.61;100.00;98681.67;134442;1282;22569;-80
2024/01/25 14:14:05;;;;;;;17.70;5.60;;;;;;;4.59;100.00;98687.14;134501;1282;23023;-80
2024/01/25 14:17:08;;;;;;;17.00;6.90;;;;;;;4.58;100.00;98692.60;134504;1282;22589;-80
2024/01/25 14:20:10;;;;;;;24.60;7.90;;;;;;;4.56;100.00;98699.80;135289;1272;22731;-79
2024/01/25 14:23:13;;;;;;;29.60;9.00;;;;;;;4.56;100.00;98694.80;135153;1272;25245;-80
2024/01/25 14:26:15;;;;;;;21.70;6.10;;;;;;;4.55;100.00;98704.59;135108;1272;22577;-80
2024/01/25 14:29:17;;;;;;;19.20;6.30;;;;;;;4.54;100.00;98707.29;137047;1272;22560;-80
2024/01/25 14:32:21;;;;;;;31.80;12.50;;;;;;;4.53;100.00;98709.85;137064;1272;22550;-80
2024/01/25 14:35:27;;;;;;;24.50;8.40;;;;;;;4.52;100.00;98715.35;137033;1272;22643;-78
2024/01/25 14:38:30;;;;;;;22.70;6.90;;;;;;;4.52;100.00;98715.67;135281;1272;22558;-79
2024/01/25 14:41:33;;;;;;;20.60;6.20;;;;;;;4.51;100.00;98723.05;135380;1272;22508;-79
2024/01/25 14:44:35;;;;;;;21.30;6.90;;;;;;;4.48;100.00;98731.59;135544;1272;22698;-80
2024/01/25 14:47:38;;;;;;;23.30;8.40;;;;;;;4.47;100.00;98740.34;135382;1272;22554;-78
2024/01/25 14:50:40;;;;;;;17.50;7.30;;;;;;;5.18;100.00;98745.92;135395;1272;22571;-78
2024/01/25 14:53:43;;;;;;;22.00;7.60;;;;;;;6.21;100.00;98730.73;135360;1272;25316;-79
2024/01/25 14:56:49;;;;;;;24.60;7.30;;;;;;;6.96;100.00;98729.07;135265;1250;22570;-79
2024/01/25 14:59:51;;;;;;;19.60;7.40;;;;;;;7.56;100.00;98730.29;135339;1272;22564;-79
2024/01/25 15:02:56;;;;;;;16.60;6.40;;;;;;;8.28;100.00;98738.41;135418;1272;22643;-80
2024/01/25 15:05:59;;;;;;;25.00;6.70;;;;;;;8.19;100.00;98737.70;135326;1273;23399;-79
2024/01/25 15:09:02;;;;;;;18.50;6.60;;;;;;;8.25;100.00;98745.79;135430;1273;22632;-79
2024/01/25 15:12:05;;;;;;;14.10;6.50;;;;;;;8.22;100.00;98745.39;135344;1273;22567;-81
2024/01/25 15:15:07;;;;;;;17.70;7.30;;;;;;;8.70;100.00;98741.82;135599;1273;22622;-81
2024/01/25 15:18:10;;;;;;;11.30;5.40;;;;;;;9.00;100.00;98751.37;135879;1273;22581;-80
2024/01/25 15:21:12;;;;;;;12.70;6.10;;;;;;;8.48;100.00;98751.09;135778;1273;22548;-81
2024/01/25 15:24:16;;;;;;;14.50;6.00;;;;;;;7.14;100.00;98762.36;136285;1273;22623;-81
2024/01/25 15:27:18;;;;;;;17.00;7.20;;;;;;;6.09;100.00;98770.30;135669;1273;22485;-80
2024/01/25 15:30:21;;;;;;;19.30;5.90;;;;;;;5.48;100.00;98775.36;135731;1273;22547;-81
2024/01/25 15:33:23;;;;;;;19.50;7.40;;;;;;;5.11;100.00;98779.52;135583;1273;23044;-80
2024/01/25 15:36:26;;;;;;;18.40;6.60;;;;;;;4.87;100.00;98777.36;135520;1260;22652;-80
2024/01/25 15:39:28;;;;;;;17.40;7.40;;;;;;;4.71;100.00;98788.02;135637;1273;22588;-80
2024/01/25 15:42:31;;;;;;;21.20;10.50;;;;;;;4.58;100.00;98790.34;135490;1273;22543;-80
2024/01/25 15:45:34;;;;;;;32.90;13.70;;;;;;;4.50;100.00;98797.48;135677;1273;22624;-84
2024/01/25 15:48:36;;;;;;;33.20;13.50;;;;;;;4.43;100.00;98794.67;136034;1273;22575;-81
2024/01/25 15:51:38;;;;;;;41.80;14.60;;;;;;;4.37;100.00;98802.20;135957;1273;22563;-81
2024/01/25 15:54:41;;;;;;;31.30;12.40;;;;;;;4.33;100.00;98807.00;136273;1273;22567;-80
2024/01/25 15:57:43;;;;;;;21.50;9.00;;;;;;;4.29;100.00;98809.27;135343;1273;25400;-79
2024/01/25 16:00:46;;;;;;;20.00;8.90;;;;;;;4.24;100.00;98813.04;135376;1273;22533;-80
2024/01/25 16:03:48;;;;;;;26.00;11.00;;;;;;;4.20;100.00;98815.83;135310;1273;22572;-80
2024/01/25 16:06:51;;;;;;;29.20;11.20;;;;;;;4.17;100.00;98820.05;136255;1273;23285;-80
2024/01/25 16:09:53;;;;;;;24.50;10.10;;;;;;;4.15;100.00;98824.26;136267;1273;22570;-80
2024/01/25 16:12:56;;;;;;;19.10;7.50;;;;;;;4.12;100.00;98825.38;135432;1273;22630;-80
2024/01/25 16:15:59;;;;;;;23.60;8.70;;;;;;;4.10;100.00;98824.41;136118;1273;22601;-79
2024/01/25 16:19:01;;;;;;;23.40;8.70;;;;;;;4.09;100.00;98831.10;136345;1273;22535;-79
2024/01/25 16:22:04;;;;;;;22.60;8.50;;;;;;;4.10;100.00;98839.77;136135;1273;22685;-78
2024/01/25 16:25:06;;;;;;;25.50;10.50;;;;;;;4.11;100.00;98836.02;136053;1273;22557;-79
2024/01/25 16:28:09;;;;;;;22.80;9.60;;;;;;;4.10;100.00;98844.23;135939;1273;22644;-79
2024/01/25 16:31:11;;;;;;;23.70;10.00;;;;;;;4.08;100.00;98844.86;135706;1273;22703;-79
2024/01/25 16:34:14;;;;;;;25.00;9.70;;;;;;;4.08;100.00;98849.48;135569;1273;22550;-79
2024/01/25 16:37:17;;;;;;;25.80;8.90;;;;;;;4.07;100.00;98853.24;135504;1273;22539;-79
2024/01/25 16:40:20;;;;;;;21.00;8.50;;;;;;;4.06;100.00;98855.77;135692;1273;22553;-79
2024/01/25 16:43:23;;;;;;;24.10;9.70;;;;;;;4.03;100.00;98865.14;135677;1273;23024;-80
2024/01/25 16:46:26;;;;;;;29.20;11.20;;;;;;;4.02;100.00;98870.08;135528;1273;22730;-80
2024/01/25 16:49:28;;;;;;;37.40;12.40;;;;;;;3.99;100.00;98870.17;135609;1273;22546;-80
2024/01/25 16:52:31;;;;;;;25.30;8.40;;;;;;;3.97;100.00;98873.02;135979;1273;22826;-79
2024/01/25 16:55:33;;;;;;;23.60;8.30;;;;;;;3.96;100.00;98895.35;135573;1273;22531;-79
2024/01/25 16:58:36;;;;;;;22.20;7.70;;;;;;;3.94;100.00;98891.31;135590;1272;22579;-80